sensor_id;sensor_type;location;lat;lon;timestamp;P1;durP1;ratioP1;P2;durP2;ratioP2
80748;SDS011;70145;53.746;9.970;2023-06-14T00:00:30;4.47;;;2.17;;
80748;SDS011;70145;53.746;9.970;2023-06-14T00:02:56;4.68;;;1.88;;
80748;SDS011;70145;53.746;9.970;2023-06-14T00:05:22;7.28;;;2.25;;
80748;SDS011;70145;53.746;9.970;2023-06-14T00:07:48;3.67;;;2.00;;
80748;SDS011;70145;53.746;9.970;2023-06-14T00:10:14;4.35;;;2.35;;
80748;SDS011;70145;53.746;9.970;2023-06-14T00:12:39;4.28;;;2.10;;
80748;SDS011;70145;53.746;9.970;2023-06-14T00:15:06;4.47;;;2.25;;
80748;SDS011;70145;53.746;9.970;2023-06-14T00:17:34;3.38;;;2.03;;
80748;SDS011;70145;53.746;9.970;2023-06-14T00:20:02;5.13;;;1.70;;
80748;SDS011;70145;53.746;9.970;2023-06-14T00:22:31;4.53;;;2.10;;
80748;SDS011;70145;53.746;9.970;2023-06-14T00:24:57;7.75;;;2.45;;
80748;SDS011;70145;53.746;9.970;2023-06-14T00:27:23;4.30;;;2.13;;
80748;SDS011;70145;53.746;9.970;2023-06-14T00:29:48;3.65;;;2.05;;
80748;SDS011;70145;53.746;9.970;2023-06-14T00:32:13;2.67;;;1.83;;
80748;SDS011;70145;53.746;9.970;2023-06-14T00:34:39;5.30;;;2.05;;
80748;SDS011;70145;53.746;9.970;2023-06-14T00:37:04;4.50;;;2.30;;
80748;SDS011;70145;53.746;9.970;2023-06-14T00:39:30;3.28;;;1.70;;
80748;SDS011;70145;53.746;9.970;2023-06-14T00:41:55;4.20;;;2.27;;
80748;SDS011;70145;53.746;9.970;2023-06-14T00:44:20;3.37;;;1.67;;
80748;SDS011;70145;53.746;9.970;2023-06-14T00:46:46;5.70;;;1.98;;
80748;SDS011;70145;53.746;9.970;2023-06-14T00:49:13;5.35;;;2.05;;
80748;SDS011;70145;53.746;9.970;2023-06-14T00:51:40;4.55;;;2.17;;
80748;SDS011;70145;53.746;9.970;2023-06-14T00:54:06;3.53;;;1.65;;
80748;SDS011;70145;53.746;9.970;2023-06-14T00:56:31;3.33;;;2.03;;
80748;SDS011;70145;53.746;9.970;2023-06-14T00:58:57;8.43;;;2.25;;
80748;SDS011;70145;53.746;9.970;2023-06-14T01:01:23;3.25;;;1.90;;
80748;SDS011;70145;53.746;9.970;2023-06-14T01:03:49;4.57;;;1.95;;
80748;SDS011;70145;53.746;9.970;2023-06-14T01:08:57;5.07;;;1.80;;
80748;SDS011;70145;53.746;9.970;2023-06-14T01:12:11;3.35;;;1.85;;
80748;SDS011;70145;53.746;9.970;2023-06-14T01:14:39;5.18;;;2.17;;
80748;SDS011;70145;53.746;9.970;2023-06-14T01:17:05;5.18;;;1.88;;
80748;SDS011;70145;53.746;9.970;2023-06-14T01:19:32;5.25;;;2.10;;
80748;SDS011;70145;53.746;9.970;2023-06-14T01:21:59;2.72;;;2.50;;
80748;SDS011;70145;53.746;9.970;2023-06-14T01:24:25;4.07;;;2.28;;
80748;SDS011;70145;53.746;9.970;2023-06-14T01:26:56;5.45;;;2.03;;
80748;SDS011;70145;53.746;9.970;2023-06-14T01:29:24;3.30;;;1.85;;
80748;SDS011;70145;53.746;9.970;2023-06-14T01:31:53;3.47;;;2.30;;
80748;SDS011;70145;53.746;9.970;2023-06-14T01:34:19;4.22;;;2.03;;
80748;SDS011;70145;53.746;9.970;2023-06-14T01:36:44;4.88;;;2.05;;
80748;SDS011;70145;53.746;9.970;2023-06-14T01:39:14;4.20;;;2.25;;
80748;SDS011;70145;53.746;9.970;2023-06-14T01:41:40;4.88;;;1.92;;
80748;SDS011;70145;53.746;9.970;2023-06-14T01:44:07;3.97;;;1.92;;
80748;SDS011;70145;53.746;9.970;2023-06-14T01:46:34;5.75;;;2.40;;
80748;SDS011;70145;53.746;9.970;2023-06-14T01:49:00;4.22;;;2.25;;
80748;SDS011;70145;53.746;9.970;2023-06-14T01:51:25;5.93;;;2.70;;
80748;SDS011;70145;53.746;9.970;2023-06-14T01:53:50;3.55;;;2.15;;
80748;SDS011;70145;53.746;9.970;2023-06-14T01:56:16;3.80;;;2.10;;
80748;SDS011;70145;53.746;9.970;2023-06-14T01:58:41;3.40;;;2.10;;
80748;SDS011;70145;53.746;9.970;2023-06-14T02:01:07;5.97;;;2.47;;
80748;SDS011;70145;53.746;9.970;2023-06-14T02:03:33;5.20;;;2.17;;
80748;SDS011;70145;53.746;9.970;2023-06-14T02:05:59;5.88;;;2.83;;
80748;SDS011;70145;53.746;9.970;2023-06-14T02:08:24;5.60;;;2.50;;
80748;SDS011;70145;53.746;9.970;2023-06-14T02:10:49;5.55;;;2.33;;
80748;SDS011;70145;53.746;9.970;2023-06-14T02:13:15;6.35;;;3.17;;
80748;SDS011;70145;53.746;9.970;2023-06-14T02:15:40;4.82;;;2.40;;
80748;SDS011;70145;53.746;9.970;2023-06-14T02:18:08;4.82;;;2.38;;
80748;SDS011;70145;53.746;9.970;2023-06-14T02:20:35;5.60;;;2.90;;
80748;SDS011;70145;53.746;9.970;2023-06-14T02:23:00;2.90;;;2.13;;
80748;SDS011;70145;53.746;9.970;2023-06-14T02:25:26;5.70;;;2.50;;
80748;SDS011;70145;53.746;9.970;2023-06-14T02:27:53;8.05;;;2.92;;
80748;SDS011;70145;53.746;9.970;2023-06-14T02:30:19;5.53;;;2.42;;
80748;SDS011;70145;53.746;9.970;2023-06-14T02:32:44;5.07;;;2.47;;
80748;SDS011;70145;53.746;9.970;2023-06-14T02:35:10;3.83;;;2.35;;
80748;SDS011;70145;53.746;9.970;2023-06-14T02:37:35;6.28;;;2.65;;
80748;SDS011;70145;53.746;9.970;2023-06-14T02:40:01;5.82;;;2.97;;
80748;SDS011;70145;53.746;9.970;2023-06-14T02:42:26;3.70;;;2.33;;
80748;SDS011;70145;53.746;9.970;2023-06-14T02:44:51;4.88;;;2.55;;
80748;SDS011;70145;53.746;9.970;2023-06-14T02:47:19;4.18;;;2.75;;
80748;SDS011;70145;53.746;9.970;2023-06-14T02:49:45;5.53;;;2.80;;
80748;SDS011;70145;53.746;9.970;2023-06-14T02:52:13;4.70;;;2.63;;
80748;SDS011;70145;53.746;9.970;2023-06-14T02:54:38;6.68;;;2.50;;
80748;SDS011;70145;53.746;9.970;2023-06-14T02:57:04;5.25;;;2.70;;
80748;SDS011;70145;53.746;9.970;2023-06-14T02:59:32;6.20;;;2.83;;
80748;SDS011;70145;53.746;9.970;2023-06-14T03:01:57;6.05;;;2.95;;
80748;SDS011;70145;53.746;9.970;2023-06-14T03:04:22;5.33;;;3.33;;
80748;SDS011;70145;53.746;9.970;2023-06-14T03:06:50;5.95;;;3.58;;
80748;SDS011;70145;53.746;9.970;2023-06-14T03:09:16;6.60;;;3.38;;
80748;SDS011;70145;53.746;9.970;2023-06-14T03:11:41;5.70;;;2.80;;
80748;SDS011;70145;53.746;9.970;2023-06-14T03:14:06;5.87;;;3.10;;
80748;SDS011;70145;53.746;9.970;2023-06-14T03:16:33;4.53;;;2.47;;
80748;SDS011;70145;53.746;9.970;2023-06-14T03:18:58;5.63;;;3.10;;
80748;SDS011;70145;53.746;9.970;2023-06-14T03:21:23;5.57;;;2.87;;
80748;SDS011;70145;53.746;9.970;2023-06-14T03:23:49;5.50;;;3.38;;
80748;SDS011;70145;53.746;9.970;2023-06-14T03:26:15;5.20;;;2.90;;
80748;SDS011;70145;53.746;9.970;2023-06-14T03:28:46;8.30;;;3.25;;
80748;SDS011;70145;53.746;9.970;2023-06-14T03:31:12;6.00;;;3.08;;
80748;SDS011;70145;53.746;9.970;2023-06-14T03:33:37;6.75;;;3.17;;
80748;SDS011;70145;53.746;9.970;2023-06-14T03:36:03;6.18;;;3.17;;
80748;SDS011;70145;53.746;9.970;2023-06-14T03:38:30;5.40;;;2.45;;
80748;SDS011;70145;53.746;9.970;2023-06-14T03:40:55;4.97;;;3.00;;
80748;SDS011;70145;53.746;9.970;2023-06-14T03:43:21;5.20;;;3.30;;
80748;SDS011;70145;53.746;9.970;2023-06-14T03:45:46;5.67;;;3.13;;
80748;SDS011;70145;53.746;9.970;2023-06-14T03:48:11;5.43;;;3.17;;
80748;SDS011;70145;53.746;9.970;2023-06-14T03:50:37;5.85;;;3.05;;
80748;SDS011;70145;53.746;9.970;2023-06-14T03:53:03;6.95;;;2.80;;
80748;SDS011;70145;53.746;9.970;2023-06-14T03:55:29;4.40;;;2.78;;
80748;SDS011;70145;53.746;9.970;2023-06-14T03:57:56;7.63;;;3.28;;
80748;SDS011;70145;53.746;9.970;2023-06-14T04:00:22;7.43;;;3.00;;
80748;SDS011;70145;53.746;9.970;2023-06-14T04:02:48;6.18;;;2.90;;
80748;SDS011;70145;53.746;9.970;2023-06-14T04:05:13;8.45;;;3.33;;
80748;SDS011;70145;53.746;9.970;2023-06-14T04:07:41;6.90;;;3.25;;
80748;SDS011;70145;53.746;9.970;2023-06-14T04:10:10;5.90;;;2.63;;
80748;SDS011;70145;53.746;9.970;2023-06-14T04:12:36;8.15;;;3.47;;
80748;SDS011;70145;53.746;9.970;2023-06-14T04:15:01;7.50;;;3.67;;
80748;SDS011;70145;53.746;9.970;2023-06-14T04:17:28;7.47;;;3.50;;
80748;SDS011;70145;53.746;9.970;2023-06-14T04:19:57;7.15;;;3.50;;
80748;SDS011;70145;53.746;9.970;2023-06-14T04:22:24;4.40;;;2.92;;
80748;SDS011;70145;53.746;9.970;2023-06-14T04:24:53;4.45;;;2.88;;
80748;SDS011;70145;53.746;9.970;2023-06-14T04:27:20;6.35;;;3.75;;
80748;SDS011;70145;53.746;9.970;2023-06-14T04:29:46;6.18;;;3.22;;
80748;SDS011;70145;53.746;9.970;2023-06-14T04:32:14;8.07;;;3.40;;
80748;SDS011;70145;53.746;9.970;2023-06-14T04:34:40;7.95;;;3.50;;
80748;SDS011;70145;53.746;9.970;2023-06-14T04:37:06;5.20;;;3.67;;
80748;SDS011;70145;53.746;9.970;2023-06-14T04:39:33;5.70;;;2.80;;
80748;SDS011;70145;53.746;9.970;2023-06-14T04:41:58;5.17;;;3.20;;
80748;SDS011;70145;53.746;9.970;2023-06-14T04:44:25;7.07;;;2.85;;
80748;SDS011;70145;53.746;9.970;2023-06-14T04:46:55;5.97;;;3.30;;
80748;SDS011;70145;53.746;9.970;2023-06-14T04:49:23;6.22;;;3.17;;
80748;SDS011;70145;53.746;9.970;2023-06-14T04:51:49;5.28;;;2.78;;
80748;SDS011;70145;53.746;9.970;2023-06-14T04:54:22;6.40;;;3.47;;
80748;SDS011;70145;53.746;9.970;2023-06-14T04:56:50;4.20;;;2.63;;
80748;SDS011;70145;53.746;9.970;2023-06-14T04:59:16;5.55;;;2.75;;
80748;SDS011;70145;53.746;9.970;2023-06-14T05:01:42;6.80;;;2.67;;
80748;SDS011;70145;53.746;9.970;2023-06-14T05:04:12;4.40;;;2.70;;
80748;SDS011;70145;53.746;9.970;2023-06-14T05:06:38;5.22;;;2.58;;
80748;SDS011;70145;53.746;9.970;2023-06-14T05:09:03;8.13;;;3.43;;
80748;SDS011;70145;53.746;9.970;2023-06-14T05:11:28;8.27;;;2.47;;
80748;SDS011;70145;53.746;9.970;2023-06-14T05:13:54;4.03;;;2.40;;
80748;SDS011;70145;53.746;9.970;2023-06-14T05:16:19;7.60;;;2.70;;
80748;SDS011;70145;53.746;9.970;2023-06-14T05:18:45;7.53;;;2.83;;
80748;SDS011;70145;53.746;9.970;2023-06-14T05:21:12;5.90;;;2.50;;
80748;SDS011;70145;53.746;9.970;2023-06-14T05:23:37;4.63;;;2.42;;
80748;SDS011;70145;53.746;9.970;2023-06-14T05:26:02;3.80;;;2.72;;
80748;SDS011;70145;53.746;9.970;2023-06-14T05:28:29;4.13;;;2.80;;
80748;SDS011;70145;53.746;9.970;2023-06-14T05:30:55;7.32;;;2.85;;
80748;SDS011;70145;53.746;9.970;2023-06-14T05:33:21;6.88;;;2.40;;
80748;SDS011;70145;53.746;9.970;2023-06-14T05:35:46;5.97;;;2.40;;
80748;SDS011;70145;53.746;9.970;2023-06-14T05:38:12;5.47;;;2.20;;
80748;SDS011;70145;53.746;9.970;2023-06-14T05:40:37;5.30;;;2.00;;
80748;SDS011;70145;53.746;9.970;2023-06-14T05:43:02;5.17;;;2.10;;
80748;SDS011;70145;53.746;9.970;2023-06-14T05:45:28;3.15;;;1.98;;
80748;SDS011;70145;53.746;9.970;2023-06-14T05:47:56;3.40;;;1.97;;
80748;SDS011;70145;53.746;9.970;2023-06-14T05:50:21;4.35;;;2.40;;
80748;SDS011;70145;53.746;9.970;2023-06-14T05:52:47;5.40;;;2.40;;
80748;SDS011;70145;53.746;9.970;2023-06-14T05:55:12;3.42;;;2.03;;
80748;SDS011;70145;53.746;9.970;2023-06-14T05:57:37;3.70;;;2.38;;
80748;SDS011;70145;53.746;9.970;2023-06-14T06:00:03;4.78;;;2.38;;
80748;SDS011;70145;53.746;9.970;2023-06-14T06:02:42;3.45;;;1.67;;
80748;SDS011;70145;53.746;9.970;2023-06-14T06:05:08;3.55;;;1.75;;
80748;SDS011;70145;53.746;9.970;2023-06-14T06:07:34;6.03;;;2.30;;
80748;SDS011;70145;53.746;9.970;2023-06-14T06:09:59;5.33;;;2.03;;
80748;SDS011;70145;53.746;9.970;2023-06-14T06:12:25;5.28;;;2.08;;
80748;SDS011;70145;53.746;9.970;2023-06-14T06:14:50;3.30;;;1.85;;
80748;SDS011;70145;53.746;9.970;2023-06-14T06:17:15;5.43;;;2.40;;
80748;SDS011;70145;53.746;9.970;2023-06-14T06:19:41;5.57;;;2.40;;
80748;SDS011;70145;53.746;9.970;2023-06-14T06:22:06;3.80;;;1.80;;
80748;SDS011;70145;53.746;9.970;2023-06-14T06:24:31;3.90;;;1.60;;
80748;SDS011;70145;53.746;9.970;2023-06-14T06:26:57;5.78;;;2.40;;
80748;SDS011;70145;53.746;9.970;2023-06-14T06:29:22;5.78;;;1.83;;
80748;SDS011;70145;53.746;9.970;2023-06-14T06:31:48;5.00;;;1.73;;
80748;SDS011;70145;53.746;9.970;2023-06-14T06:34:13;5.22;;;1.85;;
80748;SDS011;70145;53.746;9.970;2023-06-14T06:36:38;3.85;;;1.80;;
80748;SDS011;70145;53.746;9.970;2023-06-14T06:39:03;5.00;;;2.17;;
80748;SDS011;70145;53.746;9.970;2023-06-14T06:41:35;3.75;;;1.77;;
80748;SDS011;70145;53.746;9.970;2023-06-14T06:44:05;4.13;;;1.85;;
80748;SDS011;70145;53.746;9.970;2023-06-14T06:46:31;3.03;;;1.92;;
80748;SDS011;70145;53.746;9.970;2023-06-14T06:48:57;2.72;;;1.98;;
80748;SDS011;70145;53.746;9.970;2023-06-14T06:51:22;3.17;;;1.93;;
80748;SDS011;70145;53.746;9.970;2023-06-14T06:53:52;2.33;;;1.63;;
80748;SDS011;70145;53.746;9.970;2023-06-14T06:56:18;5.25;;;2.00;;
80748;SDS011;70145;53.746;9.970;2023-06-14T06:58:44;3.03;;;1.70;;
80748;SDS011;70145;53.746;9.970;2023-06-14T07:01:10;4.93;;;1.65;;
80748;SDS011;70145;53.746;9.970;2023-06-14T07:03:35;3.33;;;1.67;;
80748;SDS011;70145;53.746;9.970;2023-06-14T07:06:00;4.65;;;1.73;;
80748;SDS011;70145;53.746;9.970;2023-06-14T07:08:26;3.45;;;1.83;;
80748;SDS011;70145;53.746;9.970;2023-06-14T07:10:52;4.38;;;1.80;;
80748;SDS011;70145;53.746;9.970;2023-06-14T07:13:17;2.47;;;1.60;;
80748;SDS011;70145;53.746;9.970;2023-06-14T07:15:42;2.92;;;1.85;;
80748;SDS011;70145;53.746;9.970;2023-06-14T07:18:08;2.77;;;1.70;;
80748;SDS011;70145;53.746;9.970;2023-06-14T07:20:33;3.40;;;1.48;;
80748;SDS011;70145;53.746;9.970;2023-06-14T07:22:59;2.38;;;1.60;;
80748;SDS011;70145;53.746;9.970;2023-06-14T07:25:24;3.53;;;1.90;;
80748;SDS011;70145;53.746;9.970;2023-06-14T07:27:50;3.13;;;1.25;;
80748;SDS011;70145;53.746;9.970;2023-06-14T07:30:15;3.25;;;1.55;;
80748;SDS011;70145;53.746;9.970;2023-06-14T07:32:41;3.05;;;1.70;;
80748;SDS011;70145;53.746;9.970;2023-06-14T07:35:06;2.28;;;1.75;;
80748;SDS011;70145;53.746;9.970;2023-06-14T07:37:32;4.60;;;1.58;;
80748;SDS011;70145;53.746;9.970;2023-06-14T07:39:57;3.83;;;1.50;;
80748;SDS011;70145;53.746;9.970;2023-06-14T07:42:22;3.50;;;1.30;;
80748;SDS011;70145;53.746;9.970;2023-06-14T07:44:48;3.07;;;1.80;;
80748;SDS011;70145;53.746;9.970;2023-06-14T07:47:14;3.67;;;2.08;;
80748;SDS011;70145;53.746;9.970;2023-06-14T07:49:39;4.97;;;1.80;;
80748;SDS011;70145;53.746;9.970;2023-06-14T07:52:04;2.30;;;1.50;;
80748;SDS011;70145;53.746;9.970;2023-06-14T07:54:30;4.32;;;1.77;;
80748;SDS011;70145;53.746;9.970;2023-06-14T07:56:57;3.72;;;2.00;;
80748;SDS011;70145;53.746;9.970;2023-06-14T07:59:25;2.35;;;1.65;;
80748;SDS011;70145;53.746;9.970;2023-06-14T08:01:51;1.55;;;1.40;;
80748;SDS011;70145;53.746;9.970;2023-06-14T08:04:16;2.55;;;1.65;;
80748;SDS011;70145;53.746;9.970;2023-06-14T08:06:41;3.10;;;1.83;;
80748;SDS011;70145;53.746;9.970;2023-06-14T08:09:10;3.30;;;1.40;;
80748;SDS011;70145;53.746;9.970;2023-06-14T08:11:37;2.60;;;1.42;;
80748;SDS011;70145;53.746;9.970;2023-06-14T08:14:03;3.78;;;1.60;;
80748;SDS011;70145;53.746;9.970;2023-06-14T08:16:28;2.75;;;1.67;;
80748;SDS011;70145;53.746;9.970;2023-06-14T08:18:54;2.50;;;1.73;;
80748;SDS011;70145;53.746;9.970;2023-06-14T08:21:20;2.10;;;1.30;;
80748;SDS011;70145;53.746;9.970;2023-06-14T08:23:45;3.42;;;1.75;;
80748;SDS011;70145;53.746;9.970;2023-06-14T08:26:11;4.32;;;2.10;;
80748;SDS011;70145;53.746;9.970;2023-06-14T08:28:36;3.15;;;1.75;;
80748;SDS011;70145;53.746;9.970;2023-06-14T08:31:02;3.42;;;1.63;;
80748;SDS011;70145;53.746;9.970;2023-06-14T08:33:27;2.28;;;1.50;;
80748;SDS011;70145;53.746;9.970;2023-06-14T08:35:53;5.73;;;1.93;;
80748;SDS011;70145;53.746;9.970;2023-06-14T08:38:19;2.33;;;1.58;;
80748;SDS011;70145;53.746;9.970;2023-06-14T08:40:44;4.00;;;1.52;;
80748;SDS011;70145;53.746;9.970;2023-06-14T08:43:12;2.40;;;1.50;;
80748;SDS011;70145;53.746;9.970;2023-06-14T08:45:38;3.60;;;2.00;;
80748;SDS011;70145;53.746;9.970;2023-06-14T08:48:04;3.63;;;1.90;;
80748;SDS011;70145;53.746;9.970;2023-06-14T08:50:31;4.55;;;1.45;;
80748;SDS011;70145;53.746;9.970;2023-06-14T08:52:57;3.53;;;1.70;;
80748;SDS011;70145;53.746;9.970;2023-06-14T08:55:26;3.50;;;2.28;;
80748;SDS011;70145;53.746;9.970;2023-06-14T08:57:54;3.95;;;1.92;;
80748;SDS011;70145;53.746;9.970;2023-06-14T09:00:22;4.00;;;1.75;;
80748;SDS011;70145;53.746;9.970;2023-06-14T09:02:49;4.10;;;1.90;;
80748;SDS011;70145;53.746;9.970;2023-06-14T09:05:15;3.50;;;1.83;;
80748;SDS011;70145;53.746;9.970;2023-06-14T09:07:43;3.58;;;1.90;;
80748;SDS011;70145;53.746;9.970;2023-06-14T09:10:09;4.65;;;1.73;;
80748;SDS011;70145;53.746;9.970;2023-06-14T09:12:36;3.88;;;1.70;;
80748;SDS011;70145;53.746;9.970;2023-06-14T09:15:03;4.25;;;1.95;;
80748;SDS011;70145;53.746;9.970;2023-06-14T09:17:34;3.55;;;1.77;;
80748;SDS011;70145;53.746;9.970;2023-06-14T09:20:01;4.97;;;2.40;;
80748;SDS011;70145;53.746;9.970;2023-06-14T09:22:31;3.08;;;2.00;;
80748;SDS011;70145;53.746;9.970;2023-06-14T09:24:57;5.90;;;2.03;;
80748;SDS011;70145;53.746;9.970;2023-06-14T09:27:22;3.42;;;2.10;;
80748;SDS011;70145;53.746;9.970;2023-06-14T09:29:50;5.13;;;2.17;;
80748;SDS011;70145;53.746;9.970;2023-06-14T09:32:15;3.43;;;2.20;;
80748;SDS011;70145;53.746;9.970;2023-06-14T09:34:40;3.67;;;2.07;;
80748;SDS011;70145;53.746;9.970;2023-06-14T09:37:06;5.13;;;2.00;;
80748;SDS011;70145;53.746;9.970;2023-06-14T09:39:31;4.15;;;2.05;;
80748;SDS011;70145;53.746;9.970;2023-06-14T09:41:56;2.40;;;1.67;;
80748;SDS011;70145;53.746;9.970;2023-06-14T09:44:21;2.00;;;1.63;;
80748;SDS011;70145;53.746;9.970;2023-06-14T09:46:53;4.97;;;1.77;;
80748;SDS011;70145;53.746;9.970;2023-06-14T09:49:20;4.07;;;1.92;;
80748;SDS011;70145;53.746;9.970;2023-06-14T09:51:46;3.72;;;1.85;;
80748;SDS011;70145;53.746;9.970;2023-06-14T09:54:16;4.78;;;1.90;;
80748;SDS011;70145;53.746;9.970;2023-06-14T09:56:47;4.32;;;1.52;;
80748;SDS011;70145;53.746;9.970;2023-06-14T09:59:14;3.75;;;2.05;;
80748;SDS011;70145;53.746;9.970;2023-06-14T10:01:44;4.47;;;2.08;;
80748;SDS011;70145;53.746;9.970;2023-06-14T10:04:10;3.58;;;1.90;;
80748;SDS011;70145;53.746;9.970;2023-06-14T10:06:41;4.55;;;2.15;;
80748;SDS011;70145;53.746;9.970;2023-06-14T10:09:10;3.40;;;1.65;;
80748;SDS011;70145;53.746;9.970;2023-06-14T10:11:36;4.72;;;2.00;;
80748;SDS011;70145;53.746;9.970;2023-06-14T10:14:11;4.57;;;2.08;;
80748;SDS011;70145;53.746;9.970;2023-06-14T10:16:49;4.85;;;2.28;;
80748;SDS011;70145;53.746;9.970;2023-06-14T10:19:26;3.20;;;1.80;;
80748;SDS011;70145;53.746;9.970;2023-06-14T10:24:29;3.42;;;1.67;;
80748;SDS011;70145;53.746;9.970;2023-06-14T10:26:57;2.33;;;1.67;;
80748;SDS011;70145;53.746;9.970;2023-06-14T10:29:24;3.25;;;1.90;;
80748;SDS011;70145;53.746;9.970;2023-06-14T10:31:53;2.95;;;1.83;;
80748;SDS011;70145;53.746;9.970;2023-06-14T10:34:22;2.42;;;1.40;;
80748;SDS011;70145;53.746;9.970;2023-06-14T10:37:11;6.07;;;1.40;;
80748;SDS011;70145;53.746;9.970;2023-06-14T10:39:42;2.08;;;1.48;;
80748;SDS011;70145;53.746;9.970;2023-06-14T10:42:14;3.05;;;1.92;;
80748;SDS011;70145;53.746;9.970;2023-06-14T10:47:22;3.67;;;1.80;;
80748;SDS011;70145;53.746;9.970;2023-06-14T10:49:57;4.85;;;1.83;;
80748;SDS011;70145;53.746;9.970;2023-06-14T10:52:28;3.35;;;1.70;;
80748;SDS011;70145;53.746;9.970;2023-06-14T10:57:37;3.08;;;1.75;;
80748;SDS011;70145;53.746;9.970;2023-06-14T11:00:05;3.53;;;2.17;;
80748;SDS011;70145;53.746;9.970;2023-06-14T11:05:31;2.75;;;1.40;;
80748;SDS011;70145;53.746;9.970;2023-06-14T11:11:09;5.75;;;1.70;;
80748;SDS011;70145;53.746;9.970;2023-06-14T11:13:38;2.08;;;1.58;;
80748;SDS011;70145;53.746;9.970;2023-06-14T11:16:13;2.80;;;1.40;;
80748;SDS011;70145;53.746;9.970;2023-06-14T11:18:40;3.15;;;1.60;;
80748;SDS011;70145;53.746;9.970;2023-06-14T11:21:09;3.38;;;1.80;;
80748;SDS011;70145;53.746;9.970;2023-06-14T11:23:34;4.15;;;2.08;;
80748;SDS011;70145;53.746;9.970;2023-06-14T11:26:00;3.35;;;1.63;;
80748;SDS011;70145;53.746;9.970;2023-06-14T11:28:35;2.83;;;1.67;;
80748;SDS011;70145;53.746;9.970;2023-06-14T11:31:01;3.47;;;1.75;;
80748;SDS011;70145;53.746;9.970;2023-06-14T11:33:28;3.40;;;1.70;;
80748;SDS011;70145;53.746;9.970;2023-06-14T11:35:53;2.63;;;1.70;;
80748;SDS011;70145;53.746;9.970;2023-06-14T11:38:19;3.67;;;1.83;;
80748;SDS011;70145;53.746;9.970;2023-06-14T11:40:44;3.72;;;1.92;;
80748;SDS011;70145;53.746;9.970;2023-06-14T11:43:10;3.00;;;1.40;;
80748;SDS011;70145;53.746;9.970;2023-06-14T11:45:35;2.65;;;1.52;;
80748;SDS011;70145;53.746;9.970;2023-06-14T11:48:00;2.65;;;1.38;;
80748;SDS011;70145;53.746;9.970;2023-06-14T11:50:27;2.20;;;1.50;;
80748;SDS011;70145;53.746;9.970;2023-06-14T11:52:53;2.72;;;1.52;;
80748;SDS011;70145;53.746;9.970;2023-06-14T11:55:20;3.72;;;1.70;;
80748;SDS011;70145;53.746;9.970;2023-06-14T11:57:47;5.75;;;1.75;;
80748;SDS011;70145;53.746;9.970;2023-06-14T12:00:12;5.55;;;1.63;;
80748;SDS011;70145;53.746;9.970;2023-06-14T12:02:40;2.53;;;1.63;;
80748;SDS011;70145;53.746;9.970;2023-06-14T12:05:06;3.55;;;1.67;;
80748;SDS011;70145;53.746;9.970;2023-06-14T12:07:37;3.58;;;1.55;;
80748;SDS011;70145;53.746;9.970;2023-06-14T12:12:34;1.92;;;1.58;;
80748;SDS011;70145;53.746;9.970;2023-06-14T12:15:02;2.60;;;1.40;;
80748;SDS011;70145;53.746;9.970;2023-06-14T12:17:31;2.83;;;1.73;;
80748;SDS011;70145;53.746;9.970;2023-06-14T12:19:57;4.15;;;1.55;;
80748;SDS011;70145;53.746;9.970;2023-06-14T12:22:22;2.63;;;1.52;;
80748;SDS011;70145;53.746;9.970;2023-06-14T12:24:50;2.83;;;1.75;;
80748;SDS011;70145;53.746;9.970;2023-06-14T12:27:16;2.47;;;1.20;;
80748;SDS011;70145;53.746;9.970;2023-06-14T12:29:43;2.97;;;1.58;;
80748;SDS011;70145;53.746;9.970;2023-06-14T12:32:09;4.32;;;1.40;;
80748;SDS011;70145;53.746;9.970;2023-06-14T12:34:35;3.95;;;1.45;;
80748;SDS011;70145;53.746;9.970;2023-06-14T12:37:01;3.03;;;1.67;;
80748;SDS011;70145;53.746;9.970;2023-06-14T12:39:27;2.72;;;1.60;;
80748;SDS011;70145;53.746;9.970;2023-06-14T12:41:52;2.38;;;1.55;;
80748;SDS011;70145;53.746;9.970;2023-06-14T12:44:19;3.45;;;1.90;;
80748;SDS011;70145;53.746;9.970;2023-06-14T12:46:44;2.88;;;1.92;;
80748;SDS011;70145;53.746;9.970;2023-06-14T12:49:11;3.42;;;1.77;;
80748;SDS011;70145;53.746;9.970;2023-06-14T12:51:37;2.28;;;1.77;;
80748;SDS011;70145;53.746;9.970;2023-06-14T12:54:03;3.00;;;1.60;;
80748;SDS011;70145;53.746;9.970;2023-06-14T12:56:29;2.25;;;1.42;;
80748;SDS011;70145;53.746;9.970;2023-06-14T12:58:54;1.80;;;1.63;;
80748;SDS011;70145;53.746;9.970;2023-06-14T13:01:19;3.13;;;1.58;;
80748;SDS011;70145;53.746;9.970;2023-06-14T13:03:46;3.93;;;1.80;;
80748;SDS011;70145;53.746;9.970;2023-06-14T13:06:11;3.28;;;1.48;;
80748;SDS011;70145;53.746;9.970;2023-06-14T13:08:37;3.83;;;1.60;;
80748;SDS011;70145;53.746;9.970;2023-06-14T13:11:02;2.65;;;1.58;;
80748;SDS011;70145;53.746;9.970;2023-06-14T13:13:28;2.20;;;1.50;;
80748;SDS011;70145;53.746;9.970;2023-06-14T13:15:54;2.75;;;1.58;;
80748;SDS011;70145;53.746;9.970;2023-06-14T13:18:19;3.35;;;1.50;;
80748;SDS011;70145;53.746;9.970;2023-06-14T13:20:45;3.90;;;2.08;;
80748;SDS011;70145;53.746;9.970;2023-06-14T13:23:11;2.40;;;1.52;;
80748;SDS011;70145;53.746;9.970;2023-06-14T13:25:37;2.03;;;1.33;;
80748;SDS011;70145;53.746;9.970;2023-06-14T13:28:05;3.85;;;1.40;;
80748;SDS011;70145;53.746;9.970;2023-06-14T13:30:31;2.60;;;1.40;;
80748;SDS011;70145;53.746;9.970;2023-06-14T13:32:58;1.25;;;0.90;;
80748;SDS011;70145;53.746;9.970;2023-06-14T13:35:24;3.35;;;1.45;;
80748;SDS011;70145;53.746;9.970;2023-06-14T13:37:49;2.17;;;1.20;;
80748;SDS011;70145;53.746;9.970;2023-06-14T13:40:15;2.45;;;1.23;;
80748;SDS011;70145;53.746;9.970;2023-06-14T13:42:40;3.80;;;1.27;;
80748;SDS011;70145;53.746;9.970;2023-06-14T13:45:06;3.28;;;1.48;;
80748;SDS011;70145;53.746;9.970;2023-06-14T13:47:33;2.70;;;1.20;;
80748;SDS011;70145;53.746;9.970;2023-06-14T13:49:58;3.13;;;1.50;;
80748;SDS011;70145;53.746;9.970;2023-06-14T13:52:24;3.60;;;1.30;;
80748;SDS011;70145;53.746;9.970;2023-06-14T13:54:49;3.20;;;1.92;;
80748;SDS011;70145;53.746;9.970;2023-06-14T13:57:15;2.67;;;1.50;;
80748;SDS011;70145;53.746;9.970;2023-06-14T13:59:41;3.70;;;1.30;;
80748;SDS011;70145;53.746;9.970;2023-06-14T14:02:06;2.60;;;1.50;;
80748;SDS011;70145;53.746;9.970;2023-06-14T14:04:32;2.55;;;1.58;;
80748;SDS011;70145;53.746;9.970;2023-06-14T14:06:59;4.13;;;1.83;;
80748;SDS011;70145;53.746;9.970;2023-06-14T14:09:24;2.92;;;1.48;;
80748;SDS011;70145;53.746;9.970;2023-06-14T14:11:49;3.40;;;1.60;;
80748;SDS011;70145;53.746;9.970;2023-06-14T14:14:18;2.17;;;1.42;;
80748;SDS011;70145;53.746;9.970;2023-06-14T14:16:43;2.70;;;1.67;;
80748;SDS011;70145;53.746;9.970;2023-06-14T14:19:08;1.90;;;1.40;;
80748;SDS011;70145;53.746;9.970;2023-06-14T14:21:34;2.58;;;1.33;;
80748;SDS011;70145;53.746;9.970;2023-06-14T14:24:00;2.22;;;1.60;;
80748;SDS011;70145;53.746;9.970;2023-06-14T14:26:25;2.45;;;1.70;;
80748;SDS011;70145;53.746;9.970;2023-06-14T14:28:51;2.63;;;1.50;;
80748;SDS011;70145;53.746;9.970;2023-06-14T14:31:16;1.77;;;1.67;;
80748;SDS011;70145;53.746;9.970;2023-06-14T14:33:42;2.65;;;1.80;;
80748;SDS011;70145;53.746;9.970;2023-06-14T14:36:07;3.97;;;1.50;;
80748;SDS011;70145;53.746;9.970;2023-06-14T14:38:33;4.03;;;1.63;;
80748;SDS011;70145;53.746;9.970;2023-06-14T14:40:59;3.08;;;1.67;;
80748;SDS011;70145;53.746;9.970;2023-06-14T14:43:25;2.70;;;1.80;;
80748;SDS011;70145;53.746;9.970;2023-06-14T14:45:51;2.47;;;1.50;;
80748;SDS011;70145;53.746;9.970;2023-06-14T14:48:16;2.25;;;2.00;;
80748;SDS011;70145;53.746;9.970;2023-06-14T14:50:42;5.18;;;1.77;;
80748;SDS011;70145;53.746;9.970;2023-06-14T14:53:07;3.87;;;1.60;;
80748;SDS011;70145;53.746;9.970;2023-06-14T14:55:32;3.08;;;1.35;;
80748;SDS011;70145;53.746;9.970;2023-06-14T14:58:01;2.53;;;1.80;;
80748;SDS011;70145;53.746;9.970;2023-06-14T15:00:27;4.28;;;2.05;;
80748;SDS011;70145;53.746;9.970;2023-06-14T15:02:52;3.67;;;1.70;;